sensor_id;sensor_type;location;lat;lon;timestamp;P1;durP1;ratioP1;P2;durP2;ratioP2
10845;SDS011;5476;51.540;7.186;2023-04-01T03:11:59;2.77;;;0.90;;
10845;SDS011;5476;51.540;7.186;2023-04-01T03:18:03;2.87;;;0.93;;
10845;SDS011;5476;51.540;7.186;2023-04-01T03:21:14;1.27;;;0.70;;
10845;SDS011;5476;51.540;7.186;2023-04-01T03:23:58;0.87;;;0.80;;
10845;SDS011;5476;51.540;7.186;2023-04-01T05:31:50;2.13;;;1.30;;
10845;SDS011;5476;51.540;7.186;2023-04-01T08:36:49;6.20;;;4.27;;
10845;SDS011;5476;51.540;7.186;2023-04-01T08:39:39;5.27;;;4.47;;
10845;SDS011;5476;51.540;7.186;2023-04-01T08:42:41;5.30;;;4.20;;
10845;SDS011;5476;51.540;7.186;2023-04-01T08:45:25;4.67;;;4.03;;
10845;SDS011;5476;51.540;7.186;2023-04-01T08:56:50;4.90;;;4.30;;
10845;SDS011;5476;51.540;7.186;2023-04-01T08:59:27;5.90;;;4.57;;
10845;SDS011;5476;51.540;7.186;2023-04-01T09:02:16;6.20;;;4.50;;
10845;SDS011;5476;51.540;7.186;2023-04-01T09:05:16;6.50;;;4.70;;
10845;SDS011;5476;51.540;7.186;2023-04-01T09:07:46;5.47;;;4.40;;
10845;SDS011;5476;51.540;7.186;2023-04-01T09:10:24;6.13;;;5.03;;
10845;SDS011;5476;51.540;7.186;2023-04-01T09:15:45;6.63;;;5.33;;
10845;SDS011;5476;51.540;7.186;2023-04-01T09:21:19;5.87;;;5.27;;
10845;SDS011;5476;51.540;7.186;2023-04-01T09:26:37;6.80;;;5.70;;
10845;SDS011;5476;51.540;7.186;2023-04-01T09:29:11;7.03;;;5.43;;
10845;SDS011;5476;51.540;7.186;2023-04-01T09:37:19;7.93;;;6.00;;
10845;SDS011;5476;51.540;7.186;2023-04-01T09:39:51;8.77;;;6.37;;
10845;SDS011;5476;51.540;7.186;2023-04-01T09:42:29;8.33;;;6.10;;
10845;SDS011;5476;51.540;7.186;2023-04-01T09:45:03;7.10;;;5.97;;
10845;SDS011;5476;51.540;7.186;2023-04-01T09:47:38;8.73;;;6.53;;
10845;SDS011;5476;51.540;7.186;2023-04-01T09:50:30;7.53;;;6.27;;
10845;SDS011;5476;51.540;7.186;2023-04-01T09:53:05;9.23;;;6.67;;
10845;SDS011;5476;51.540;7.186;2023-04-01T09:58:27;9.07;;;6.70;;
10845;SDS011;5476;51.540;7.186;2023-04-01T10:07:04;9.93;;;7.57;;
10845;SDS011;5476;51.540;7.186;2023-04-01T10:18:05;10.10;;;7.70;;
10845;SDS011;5476;51.540;7.186;2023-04-01T10:21:01;9.37;;;7.50;;
10845;SDS011;5476;51.540;7.186;2023-04-01T10:23:36;8.70;;;6.97;;
10845;SDS011;5476;51.540;7.186;2023-04-01T10:26:27;10.33;;;7.60;;
10845;SDS011;5476;51.540;7.186;2023-04-01T10:29:21;8.90;;;6.70;;
10845;SDS011;5476;51.540;7.186;2023-04-01T10:34:54;8.63;;;6.80;;
10845;SDS011;5476;51.540;7.186;2023-04-01T10:37:45;8.93;;;6.80;;
10845;SDS011;5476;51.540;7.186;2023-04-01T10:40:24;7.07;;;5.83;;
10845;SDS011;5476;51.540;7.186;2023-04-01T10:43:12;7.13;;;6.17;;
10845;SDS011;5476;51.540;7.186;2023-04-01T10:49:04;6.67;;;5.37;;
10845;SDS011;5476;51.540;7.186;2023-04-01T10:54:37;9.07;;;6.30;;
10845;SDS011;5476;51.540;7.186;2023-04-01T10:57:20;7.33;;;6.10;;
10845;SDS011;5476;51.540;7.186;2023-04-01T11:00:08;9.30;;;6.00;;
10845;SDS011;5476;51.540;7.186;2023-04-01T11:02:45;7.50;;;5.87;;
10845;SDS011;5476;51.540;7.186;2023-04-01T11:13:58;8.70;;;7.00;;
10845;SDS011;5476;51.540;7.186;2023-04-01T11:16:42;9.30;;;6.73;;
10845;SDS011;5476;51.540;7.186;2023-04-01T11:19:22;9.03;;;6.80;;
10845;SDS011;5476;51.540;7.186;2023-04-01T11:22:14;7.40;;;6.37;;
10845;SDS011;5476;51.540;7.186;2023-04-01T11:30:21;12.57;;;8.30;;
10845;SDS011;5476;51.540;7.186;2023-04-01T11:32:52;11.23;;;8.87;;
10845;SDS011;5476;51.540;7.186;2023-04-01T11:38:09;15.83;;;11.17;;
10845;SDS011;5476;51.540;7.186;2023-04-01T11:40:43;14.63;;;11.10;;
10845;SDS011;5476;51.540;7.186;2023-04-01T11:43:13;16.10;;;10.87;;
10845;SDS011;5476;51.540;7.186;2023-04-01T11:45:45;15.80;;;11.90;;
10845;SDS011;5476;51.540;7.186;2023-04-01T11:48:17;13.47;;;10.27;;
10845;SDS011;5476;51.540;7.186;2023-04-01T11:53:36;12.70;;;10.03;;
10845;SDS011;5476;51.540;7.186;2023-04-01T11:56:20;14.83;;;9.57;;
10845;SDS011;5476;51.540;7.186;2023-04-01T11:58:58;13.07;;;8.93;;
10845;SDS011;5476;51.540;7.186;2023-04-01T12:01:51;11.80;;;8.77;;
10845;SDS011;5476;51.540;7.186;2023-04-01T12:04:27;11.83;;;8.80;;
10845;SDS011;5476;51.540;7.186;2023-04-01T12:07:00;9.93;;;7.87;;
10845;SDS011;5476;51.540;7.186;2023-04-01T12:09:30;8.80;;;7.20;;
10845;SDS011;5476;51.540;7.186;2023-04-01T12:12:06;11.87;;;8.97;;
10845;SDS011;5476;51.540;7.186;2023-04-01T12:14:43;9.03;;;7.60;;
10845;SDS011;5476;51.540;7.186;2023-04-01T12:17:16;9.43;;;7.70;;
10845;SDS011;5476;51.540;7.186;2023-04-01T12:19:56;9.47;;;7.83;;
10845;SDS011;5476;51.540;7.186;2023-04-01T12:22:28;9.97;;;7.60;;
10845;SDS011;5476;51.540;7.186;2023-04-01T12:25:07;9.27;;;7.80;;
10845;SDS011;5476;51.540;7.186;2023-04-01T12:27:42;11.50;;;9.23;;
10845;SDS011;5476;51.540;7.186;2023-04-01T12:33:14;15.13;;;10.50;;
10845;SDS011;5476;51.540;7.186;2023-04-01T12:35:48;14.17;;;10.90;;
10845;SDS011;5476;51.540;7.186;2023-04-01T12:38:21;14.17;;;10.80;;
10845;SDS011;5476;51.540;7.186;2023-04-01T12:41:03;13.87;;;10.90;;
10845;SDS011;5476;51.540;7.186;2023-04-01T12:46:25;13.27;;;10.17;;
10845;SDS011;5476;51.540;7.186;2023-04-01T12:49:02;13.80;;;10.30;;
10845;SDS011;5476;51.540;7.186;2023-04-01T12:51:37;13.87;;;9.60;;
10845;SDS011;5476;51.540;7.186;2023-04-01T12:57:03;11.67;;;9.00;;
10845;SDS011;5476;51.540;7.186;2023-04-01T12:59:38;12.13;;;8.57;;
10845;SDS011;5476;51.540;7.186;2023-04-01T13:02:11;8.83;;;6.97;;
10845;SDS011;5476;51.540;7.186;2023-04-01T13:04:47;9.87;;;7.40;;
10845;SDS011;5476;51.540;7.186;2023-04-01T13:07:27;9.23;;;6.20;;
10845;SDS011;5476;51.540;7.186;2023-04-01T13:09:57;8.13;;;6.20;;
10845;SDS011;5476;51.540;7.186;2023-04-01T13:12:35;11.00;;;6.50;;
10845;SDS011;5476;51.540;7.186;2023-04-01T13:15:06;9.90;;;6.60;;
10845;SDS011;5476;51.540;7.186;2023-04-01T13:17:37;7.63;;;6.57;;
10845;SDS011;5476;51.540;7.186;2023-04-01T13:20:14;7.33;;;6.20;;
10845;SDS011;5476;51.540;7.186;2023-04-01T13:22:49;8.60;;;5.90;;
10845;SDS011;5476;51.540;7.186;2023-04-01T13:25:21;7.40;;;5.50;;
10845;SDS011;5476;51.540;7.186;2023-04-01T13:27:53;9.77;;;6.03;;
10845;SDS011;5476;51.540;7.186;2023-04-01T13:30:24;10.87;;;5.87;;
10845;SDS011;5476;51.540;7.186;2023-04-01T13:32:55;8.33;;;6.23;;
10845;SDS011;5476;51.540;7.186;2023-04-01T13:35:30;6.93;;;5.80;;
10845;SDS011;5476;51.540;7.186;2023-04-01T13:38:05;7.83;;;6.17;;
10845;SDS011;5476;51.540;7.186;2023-04-01T13:40:36;7.73;;;6.40;;
10845;SDS011;5476;51.540;7.186;2023-04-01T13:43:10;6.70;;;5.23;;
10845;SDS011;5476;51.540;7.186;2023-04-01T13:45:42;8.07;;;5.90;;
10845;SDS011;5476;51.540;7.186;2023-04-01T13:51:03;6.57;;;5.83;;
10845;SDS011;5476;51.540;7.186;2023-04-01T13:53:42;7.20;;;5.47;;
10845;SDS011;5476;51.540;7.186;2023-04-01T13:56:15;6.57;;;4.53;;
10845;SDS011;5476;51.540;7.186;2023-04-01T13:58:53;5.83;;;4.33;;
10845;SDS011;5476;51.540;7.186;2023-04-01T14:01:41;6.47;;;4.70;;
10845;SDS011;5476;51.540;7.186;2023-04-01T14:04:30;9.17;;;6.07;;
10845;SDS011;5476;51.540;7.186;2023-04-01T14:07:06;7.97;;;6.17;;
10845;SDS011;5476;51.540;7.186;2023-04-01T14:09:45;11.30;;;7.60;;
10845;SDS011;5476;51.540;7.186;2023-04-01T14:12:22;9.43;;;7.57;;
10845;SDS011;5476;51.540;7.186;2023-04-01T14:14:56;10.47;;;7.63;;
10845;SDS011;5476;51.540;7.186;2023-04-01T14:17:29;9.77;;;7.97;;
10845;SDS011;5476;51.540;7.186;2023-04-01T14:22:54;10.90;;;8.17;;
10845;SDS011;5476;51.540;7.186;2023-04-01T14:25:33;11.93;;;8.80;;
10845;SDS011;5476;51.540;7.186;2023-04-01T14:28:09;10.77;;;8.43;;
10845;SDS011;5476;51.540;7.186;2023-04-01T14:30:41;9.23;;;6.90;;
10845;SDS011;5476;51.540;7.186;2023-04-01T14:33:21;9.23;;;7.40;;
10845;SDS011;5476;51.540;7.186;2023-04-01T14:35:53;11.17;;;8.33;;
10845;SDS011;5476;51.540;7.186;2023-04-01T14:38:41;10.53;;;7.57;;
10845;SDS011;5476;51.540;7.186;2023-04-01T14:41:16;10.37;;;7.80;;
10845;SDS011;5476;51.540;7.186;2023-04-01T14:49:48;10.20;;;8.60;;
10845;SDS011;5476;51.540;7.186;2023-04-01T14:52:22;10.47;;;8.07;;
10845;SDS011;5476;51.540;7.186;2023-04-01T14:54:51;11.47;;;7.93;;
10845;SDS011;5476;51.540;7.186;2023-04-01T14:57:22;12.53;;;8.73;;
10845;SDS011;5476;51.540;7.186;2023-04-01T14:59:51;13.43;;;9.33;;
10845;SDS011;5476;51.540;7.186;2023-04-01T15:05:11;12.13;;;9.23;;
10845;SDS011;5476;51.540;7.186;2023-04-01T15:07:56;11.80;;;9.10;;
10845;SDS011;5476;51.540;7.186;2023-04-01T15:13:15;12.53;;;9.40;;
10845;SDS011;5476;51.540;7.186;2023-04-01T15:15:49;12.87;;;9.87;;
10845;SDS011;5476;51.540;7.186;2023-04-01T15:18:18;13.80;;;9.97;;
10845;SDS011;5476;51.540;7.186;2023-04-01T15:20:56;11.90;;;9.57;;
10845;SDS011;5476;51.540;7.186;2023-04-01T15:23:34;13.43;;;9.67;;
10845;SDS011;5476;51.540;7.186;2023-04-01T15:26:08;12.07;;;9.00;;
10845;SDS011;5476;51.540;7.186;2023-04-01T15:28:41;13.40;;;10.23;;
10845;SDS011;5476;51.540;7.186;2023-04-01T15:31:20;12.60;;;10.20;;
10845;SDS011;5476;51.540;7.186;2023-04-01T15:33:55;14.60;;;9.97;;
10845;SDS011;5476;51.540;7.186;2023-04-01T15:36:30;12.70;;;9.30;;
10845;SDS011;5476;51.540;7.186;2023-04-01T15:39:03;13.43;;;10.00;;
10845;SDS011;5476;51.540;7.186;2023-04-01T15:41:35;13.60;;;10.73;;
10845;SDS011;5476;51.540;7.186;2023-04-01T15:47:02;13.80;;;10.77;;
10845;SDS011;5476;51.540;7.186;2023-04-01T15:49:35;14.77;;;10.67;;
10845;SDS011;5476;51.540;7.186;2023-04-01T15:52:10;14.63;;;11.80;;
10845;SDS011;5476;51.540;7.186;2023-04-01T15:54:55;18.17;;;12.43;;
10845;SDS011;5476;51.540;7.186;2023-04-01T15:57:28;17.20;;;12.83;;
10845;SDS011;5476;51.540;7.186;2023-04-01T16:00:02;17.03;;;11.80;;
10845;SDS011;5476;51.540;7.186;2023-04-01T16:02:38;14.77;;;11.63;;
10845;SDS011;5476;51.540;7.186;2023-04-01T16:05:16;16.40;;;11.73;;
10845;SDS011;5476;51.540;7.186;2023-04-01T16:07:53;14.93;;;10.83;;
10845;SDS011;5476;51.540;7.186;2023-04-01T16:13:19;16.50;;;10.87;;
10845;SDS011;5476;51.540;7.186;2023-04-01T16:15:52;16.10;;;11.40;;
10845;SDS011;5476;51.540;7.186;2023-04-01T16:18:31;14.53;;;10.93;;
10845;SDS011;5476;51.540;7.186;2023-04-01T16:21:02;14.07;;;9.97;;
10845;SDS011;5476;51.540;7.186;2023-04-01T16:23:35;14.83;;;10.33;;
10845;SDS011;5476;51.540;7.186;2023-04-01T16:26:05;13.27;;;9.63;;
10845;SDS011;5476;51.540;7.186;2023-04-01T16:28:48;11.80;;;9.10;;
10845;SDS011;5476;51.540;7.186;2023-04-01T16:31:25;14.30;;;10.33;;
10845;SDS011;5476;51.540;7.186;2023-04-01T16:33:57;12.27;;;8.97;;
10845;SDS011;5476;51.540;7.186;2023-04-01T16:36:27;9.20;;;7.73;;
10845;SDS011;5476;51.540;7.186;2023-04-01T16:39:02;8.77;;;6.93;;
10845;SDS011;5476;51.540;7.186;2023-04-01T16:41:33;8.97;;;7.33;;
10845;SDS011;5476;51.540;7.186;2023-04-01T16:44:09;9.83;;;7.93;;
10845;SDS011;5476;51.540;7.186;2023-04-01T16:46:38;11.17;;;8.57;;
10845;SDS011;5476;51.540;7.186;2023-04-01T16:49:16;12.57;;;8.27;;
10845;SDS011;5476;51.540;7.186;2023-04-01T16:51:45;11.40;;;9.03;;
10845;SDS011;5476;51.540;7.186;2023-04-01T16:54:14;12.70;;;9.23;;
10845;SDS011;5476;51.540;7.186;2023-04-01T16:56:43;10.33;;;8.90;;
10845;SDS011;5476;51.540;7.186;2023-04-01T16:59:17;11.70;;;8.77;;
10845;SDS011;5476;51.540;7.186;2023-04-01T17:01:48;11.43;;;8.63;;
10845;SDS011;5476;51.540;7.186;2023-04-01T17:04:21;10.40;;;7.90;;
10845;SDS011;5476;51.540;7.186;2023-04-01T17:06:52;11.13;;;7.90;;
10845;SDS011;5476;51.540;7.186;2023-04-01T17:09:29;8.40;;;6.53;;
10845;SDS011;5476;51.540;7.186;2023-04-01T17:12:02;8.80;;;6.40;;
10845;SDS011;5476;51.540;7.186;2023-04-01T17:14:35;7.93;;;5.93;;
10845;SDS011;5476;51.540;7.186;2023-04-01T17:17:28;8.23;;;6.10;;
10845;SDS011;5476;51.540;7.186;2023-04-01T17:20:03;9.10;;;6.07;;
10845;SDS011;5476;51.540;7.186;2023-04-01T17:22:32;9.30;;;7.20;;
10845;SDS011;5476;51.540;7.186;2023-04-01T17:25:03;10.03;;;7.57;;
10845;SDS011;5476;51.540;7.186;2023-04-01T17:27:37;9.77;;;7.53;;
10845;SDS011;5476;51.540;7.186;2023-04-01T17:36:11;11.33;;;7.20;;
10845;SDS011;5476;51.540;7.186;2023-04-01T17:38:48;9.67;;;6.87;;
10845;SDS011;5476;51.540;7.186;2023-04-01T17:43:48;9.13;;;6.50;;
10845;SDS011;5476;51.540;7.186;2023-04-01T17:46:23;9.77;;;7.23;;
10845;SDS011;5476;51.540;7.186;2023-04-01T17:48:53;9.67;;;7.43;;
10845;SDS011;5476;51.540;7.186;2023-04-01T17:51:35;11.10;;;8.00;;
10845;SDS011;5476;51.540;7.186;2023-04-01T17:54:12;11.33;;;8.93;;
10845;SDS011;5476;51.540;7.186;2023-04-01T18:25:41;18.87;;;11.80;;
10845;SDS011;5476;51.540;7.186;2023-04-01T18:28:18;19.23;;;11.60;;
10845;SDS011;5476;51.540;7.186;2023-04-01T18:30:50;16.27;;;11.40;;
10845;SDS011;5476;51.540;7.186;2023-04-01T18:33:19;18.00;;;12.30;;
10845;SDS011;5476;51.540;7.186;2023-04-01T18:35:50;19.07;;;12.73;;
10845;SDS011;5476;51.540;7.186;2023-04-01T18:38:24;18.10;;;11.80;;
10845;SDS011;5476;51.540;7.186;2023-04-01T19:28:51;3.67;;;3.33;;
10845;SDS011;5476;51.540;7.186;2023-04-01T19:53:39;3.63;;;3.33;;
10845;SDS011;5476;51.540;7.186;2023-04-01T19:56:22;3.70;;;3.40;;
10845;SDS011;5476;51.540;7.186;2023-04-01T20:12:32;3.57;;;2.97;;
10845;SDS011;5476;51.540;7.186;2023-04-01T20:15:18;3.50;;;3.20;;
10845;SDS011;5476;51.540;7.186;2023-04-01T20:17:52;3.67;;;3.20;;
10845;SDS011;5476;51.540;7.186;2023-04-01T20:20:35;3.57;;;3.23;;
10845;SDS011;5476;51.540;7.186;2023-04-01T20:23:12;3.80;;;3.40;;
10845;SDS011;5476;51.540;7.186;2023-04-01T20:41:42;3.20;;;2.90;;
10845;SDS011;5476;51.540;7.186;2023-04-01T20:44:43;3.50;;;3.20;;
10845;SDS011;5476;51.540;7.186;2023-04-01T20:47:27;3.60;;;3.30;;
10845;SDS011;5476;51.540;7.186;2023-04-01T20:50:06;3.63;;;3.20;;
10845;SDS011;5476;51.540;7.186;2023-04-01T20:52:39;4.03;;;3.63;;
10845;SDS011;5476;51.540;7.186;2023-04-01T20:55:21;4.83;;;3.20;;
10845;SDS011;5476;51.540;7.186;2023-04-01T20:57:55;3.93;;;3.50;;
10845;SDS011;5476;51.540;7.186;2023-04-01T21:00:58;3.70;;;3.40;;
10845;SDS011;5476;51.540;7.186;2023-04-01T21:51:32;3.90;;;3.47;;
10845;SDS011;5476;51.540;7.186;2023-04-01T23:09:03;6.17;;;5.50;;
10845;SDS011;5476;51.540;7.186;2023-04-01T23:11:33;5.80;;;5.20;;
10845;SDS011;5476;51.540;7.186;2023-04-01T23:14:28;6.03;;;5.43;;
10845;SDS011;5476;51.540;7.186;2023-04-01T23:17:24;5.27;;;4.77;;
10845;SDS011;5476;51.540;7.186;2023-04-01T23:22:52;4.97;;;4.47;;
10845;SDS011;5476;51.540;7.186;2023-04-01T23:25:39;4.70;;;4.30;;
10845;SDS011;5476;51.540;7.186;2023-04-01T23:28:20;4.37;;;3.97;;
10845;SDS011;5476;51.540;7.186;2023-04-01T23:30:52;4.40;;;4.00;;
10845;SDS011;5476;51.540;7.186;2023-04-01T23:33:34;4.30;;;3.90;;
10845;SDS011;5476;51.540;7.186;2023-04-01T23:36:10;4.30;;;3.90;;
10845;SDS011;5476;51.540;7.186;2023-04-01T23:38:51;4.37;;;3.97;;
10845;SDS011;5476;51.540;7.186;2023-04-01T23:41:26;5.23;;;4.50;;
10845;SDS011;5476;51.540;7.186;2023-04-01T23:44:24;4.40;;;4.00;;
10845;SDS011;5476;51.540;7.186;2023-04-01T23:46:53;4.70;;;4.30;;
10845;SDS011;5476;51.540;7.186;2023-04-01T23:49:24;4.90;;;4.20;;
10845;SDS011;5476;51.540;7.186;2023-04-01T23:51:56;5.20;;;4.50;;
10845;SDS011;5476;51.540;7.186;2023-04-01T23:54:32;4.67;;;4.27;;
